createdAt,value
2017-09-30T00:01:20.720Z,28.10
2017-09-30T00:03:48.996Z,21.83
2017-09-30T00:06:17.292Z,21.25
2017-09-30T00:08:45.578Z,22.98
2017-09-30T00:11:13.897Z,23.10
2017-09-30T00:13:42.939Z,24.95
2017-09-30T00:16:11.169Z,20.00
2017-09-30T00:18:39.437Z,25.10
2017-09-30T00:21:07.681Z,31.87
2017-09-30T00:23:35.929Z,25.33
2017-09-30T00:26:04.204Z,21.60
2017-09-30T00:28:32.444Z,19.42
2017-09-30T00:31:00.681Z,25.83
2017-09-30T00:33:29.721Z,21.12
2017-09-30T00:35:57.961Z,26.30
2017-09-30T00:38:26.210Z,22.75
2017-09-30T00:40:54.497Z,18.50
2017-09-30T00:43:22.737Z,21.50
2017-09-30T00:45:50.977Z,21.20
2017-09-30T00:48:20.009Z,22.05
2017-09-30T00:50:48.253Z,24.60
2017-09-30T00:53:16.499Z,20.15
2017-09-30T00:55:44.775Z,20.50
2017-09-30T00:58:13.022Z,19.83
2017-09-30T01:00:41.261Z,23.12
2017-09-30T01:03:09.545Z,21.95
2017-09-30T01:05:37.785Z,21.90
2017-09-30T01:08:06.030Z,23.52
2017-09-30T01:10:35.069Z,19.33
2017-09-30T01:13:03.316Z,21.62
2017-09-30T01:15:31.553Z,24.02
2017-09-30T01:17:59.846Z,26.90
2017-09-30T01:20:28.085Z,21.75
2017-09-30T01:22:56.333Z,24.12
2017-09-30T01:25:24.733Z,23.05
2017-09-30T01:27:52.974Z,23.87
2017-09-30T01:30:21.222Z,25.42
2017-09-30T01:32:49.497Z,22.20
2017-09-30T01:35:17.737Z,21.20
2017-09-30T01:37:45.986Z,23.02
2017-09-30T01:40:15.030Z,22.92
2017-09-30T01:42:43.278Z,18.27
2017-09-30T01:45:11.530Z,20.33
2017-09-30T01:47:39.797Z,19.80
2017-09-30T01:50:08.041Z,22.20
2017-09-30T01:52:36.280Z,21.70
2017-09-30T01:55:04.545Z,20.33
2017-09-30T01:57:32.788Z,23.00
2017-09-30T02:00:01.805Z,18.62
2017-09-30T02:02:30.085Z,20.45
2017-09-30T02:04:58.329Z,20.95
2017-09-30T02:07:26.578Z,25.73
2017-09-30T02:09:54.869Z,23.95
2017-09-30T02:12:23.113Z,21.83
2017-09-30T02:14:51.361Z,20.40
2017-09-30T02:17:19.738Z,26.80
2017-09-30T02:19:47.977Z,22.73
2017-09-30T02:22:16.225Z,22.65
2017-09-30T02:24:44.518Z,23.52
2017-09-30T02:27:12.757Z,22.05
2017-09-30T02:29:41.004Z,23.95
2017-09-30T02:32:09.286Z,26.27
2017-09-30T02:34:37.529Z,21.95
2017-09-30T02:37:05.781Z,24.70
2017-09-30T02:39:34.828Z,23.17
2017-09-30T02:42:03.073Z,22.55
2017-09-30T02:44:31.318Z,21.60
2017-09-30T02:46:59.705Z,22.37
2017-09-30T02:49:27.950Z,22.85
2017-09-30T02:51:56.191Z,27.65
2017-09-30T02:54:24.466Z,22.52
2017-09-30T02:56:52.713Z,20.55
2017-09-30T02:59:20.957Z,23.30
2017-09-30T03:01:49.229Z,23.50
2017-09-30T03:04:17.477Z,24.17
2017-09-30T03:06:45.717Z,24.27
2017-09-30T03:09:14.766Z,23.05
2017-09-30T03:11:43.005Z,23.50
2017-09-30T03:14:11.250Z,28.27
2017-09-30T03:16:39.518Z,26.85
2017-09-30T03:19:07.757Z,28.02
2017-09-30T03:21:35.996Z,25.75
2017-09-30T03:24:04.294Z,24.98
2017-09-30T03:26:32.537Z,24.67
2017-09-30T03:29:01.545Z,26.12
2017-09-30T03:31:29.934Z,27.27
2017-09-30T03:33:58.172Z,24.23
2017-09-30T03:36:26.413Z,20.88
2017-09-30T03:38:54.809Z,21.87
2017-09-30T03:41:23.061Z,25.17
2017-09-30T03:43:51.301Z,37.70
2017-09-30T03:46:19.569Z,21.08
2017-09-30T03:48:47.817Z,21.60
2017-09-30T03:51:16.065Z,23.00
2017-09-30T03:53:45.117Z,20.10
2017-09-30T03:56:13.361Z,21.75
2017-09-30T03:58:41.601Z,23.20
2017-09-30T04:01:09.881Z,20.85
2017-09-30T04:03:38.125Z,21.37
2017-09-30T04:06:06.368Z,22.85
2017-09-30T04:08:34.653Z,23.25
2017-09-30T04:11:02.898Z,28.98
2017-09-30T04:13:31.148Z,28.83
2017-09-30T04:15:59.433Z,21.48
2017-09-30T04:18:27.677Z,21.50
2017-09-30T04:20:55.926Z,20.50
2017-09-30T04:23:24.324Z,22.87
2017-09-30T04:25:52.568Z,23.10
2017-09-30T04:28:20.809Z,19.90
2017-09-30T04:30:49.081Z,18.52
2017-09-30T04:33:17.321Z,24.05
2017-09-30T04:35:45.597Z,21.85
2017-09-30T04:38:13.877Z,20.60
2017-09-30T04:40:42.113Z,24.12
2017-09-30T04:43:10.357Z,20.23
2017-09-30T04:45:39.385Z,24.48
2017-09-30T04:48:07.632Z,20.58
2017-09-30T04:50:35.869Z,23.38
2017-09-30T04:53:04.149Z,23.65
2017-09-30T04:55:32.398Z,17.60
2017-09-30T04:58:00.638Z,21.62
2017-09-30T05:00:29.685Z,18.98
2017-09-30T05:02:57.921Z,23.02
2017-09-30T05:05:26.179Z,18.58
2017-09-30T05:07:54.561Z,22.17
2017-09-30T05:10:22.797Z,21.25
2017-09-30T05:12:51.045Z,21.45
2017-09-30T05:15:19.329Z,19.50
2017-09-30T05:17:47.581Z,19.70
2017-09-30T05:20:15.824Z,20.12
2017-09-30T05:22:44.093Z,21.73
2017-09-30T05:25:12.345Z,20.77
2017-09-30T05:27:40.591Z,22.23
2017-09-30T05:30:09.621Z,23.15
2017-09-30T05:32:37.870Z,23.77
2017-09-30T05:35:06.117Z,25.58
2017-09-30T05:37:34.381Z,20.02
2017-09-30T05:40:02.630Z,17.05
2017-09-30T05:42:30.871Z,20.20
2017-09-30T05:44:59.917Z,20.90
2017-09-30T05:47:28.161Z,21.98
2017-09-30T05:49:56.396Z,16.10
2017-09-30T05:52:24.897Z,20.90
2017-09-30T05:54:53.138Z,21.40
2017-09-30T05:57:21.372Z,19.35
2017-09-30T05:59:49.660Z,19.92
2017-09-30T06:02:17.897Z,23.17
2017-09-30T06:04:46.145Z,22.08
2017-09-30T06:07:15.192Z,21.20
2017-09-30T06:09:43.433Z,19.42
2017-09-30T06:12:11.678Z,23.35
2017-09-30T06:14:39.941Z,23.50
2017-09-30T06:17:08.186Z,22.55
2017-09-30T06:19:36.434Z,18.12
2017-09-30T06:22:04.845Z,19.00
2017-09-30T06:24:33.140Z,20.62
2017-09-30T06:27:02.149Z,21.17
2017-09-30T06:29:30.429Z,20.92
2017-09-30T06:31:58.669Z,19.48
2017-09-30T06:34:26.909Z,24.37
2017-09-30T06:36:55.950Z,22.35
2017-09-30T06:39:24.185Z,24.10
2017-09-30T06:41:52.425Z,21.85
2017-09-30T06:44:20.829Z,20.30
2017-09-30T06:46:49.082Z,20.83
2017-09-30T06:49:17.330Z,21.27
2017-09-30T06:51:45.717Z,22.98
2017-09-30T06:54:13.960Z,27.13
2017-09-30T06:56:42.209Z,19.45
2017-09-30T06:59:10.494Z,20.88
2017-09-30T07:01:38.741Z,20.42
2017-09-30T07:04:06.989Z,23.42
2017-09-30T07:06:35.281Z,24.23
2017-09-30T07:09:03.528Z,24.10
2017-09-30T07:11:31.774Z,23.75
2017-09-30T07:14:00.164Z,20.67
2017-09-30T07:16:28.417Z,16.35
2017-09-30T07:18:56.681Z,19.45
2017-09-30T07:21:24.968Z,17.37
2017-09-30T07:23:53.213Z,17.90
2017-09-30T07:26:21.519Z,16.35
2017-09-30T07:28:49.806Z,16.87
2017-09-30T07:31:18.059Z,17.90
2017-09-30T07:33:46.305Z,17.35
2017-09-30T07:36:14.822Z,15.65
2017-09-30T07:38:43.064Z,14.68
2017-09-30T07:41:11.305Z,13.77
2017-09-30T07:43:39.590Z,14.10
2017-09-30T07:46:07.833Z,14.85
2017-09-30T07:48:36.077Z,14.90
2017-09-30T07:51:04.356Z,15.32
2017-09-30T07:53:32.598Z,16.73
2017-09-30T07:56:00.846Z,12.35
2017-09-30T07:58:29.904Z,14.30
2017-09-30T08:00:58.157Z,14.30
2017-09-30T08:03:26.393Z,12.93
2017-09-30T08:05:54.665Z,15.15
2017-09-30T08:08:22.913Z,14.63
2017-09-30T08:10:51.157Z,12.65
2017-09-30T08:13:19.545Z,12.40
2017-09-30T08:15:47.789Z,14.00
2017-09-30T08:18:16.033Z,13.52
2017-09-30T08:20:44.301Z,12.70
2017-09-30T08:23:12.545Z,13.38
2017-09-30T08:25:40.789Z,11.20
2017-09-30T08:28:09.834Z,10.23
2017-09-30T08:30:38.082Z,11.45
2017-09-30T08:33:06.321Z,10.57
2017-09-30T08:35:34.602Z,10.82
2017-09-30T08:38:02.841Z,10.98
2017-09-30T08:40:31.081Z,12.37
2017-09-30T08:42:59.498Z,9.98
2017-09-30T08:45:27.737Z,11.68
2017-09-30T08:47:55.976Z,10.90
2017-09-30T08:50:24.351Z,9.98
2017-09-30T08:52:52.585Z,12.02
2017-09-30T08:55:21.609Z,10.85
2017-09-30T08:57:49.886Z,9.75
2017-09-30T09:00:18.129Z,9.02
2017-09-30T09:02:46.365Z,9.63
2017-09-30T09:05:14.640Z,10.80
2017-09-30T09:07:42.886Z,10.00
2017-09-30T09:10:11.130Z,8.82
2017-09-30T09:12:40.156Z,9.07
2017-09-30T09:15:08.392Z,8.55
2017-09-30T09:17:36.633Z,8.68
2017-09-30T09:20:05.882Z,9.02
2017-09-30T09:22:34.124Z,9.73
2017-09-30T09:25:02.372Z,10.73
2017-09-30T09:27:30.706Z,7.22
2017-09-30T09:29:59.705Z,8.63
2017-09-30T09:32:27.945Z,12.82
2017-09-30T09:34:56.322Z,8.52
2017-09-30T09:37:24.555Z,8.32
2017-09-30T09:39:53.556Z,9.65
2017-09-30T09:42:21.833Z,8.50
2017-09-30T09:44:50.069Z,9.00
2017-09-30T09:47:18.305Z,7.70
2017-09-30T09:49:47.462Z,8.50
2017-09-30T09:52:15.693Z,18.52
2017-09-30T09:54:43.929Z,7.25
2017-09-30T09:57:12.213Z,9.15
2017-09-30T09:59:40.460Z,11.57
2017-09-30T10:02:08.697Z,8.98
2017-09-30T10:04:37.725Z,6.90
2017-09-30T10:07:06.046Z,10.10
2017-09-30T10:09:34.261Z,8.10
2017-09-30T10:12:02.549Z,7.90
2017-09-30T10:14:30.784Z,7.90
2017-09-30T10:16:59.025Z,10.27
2017-09-30T10:19:27.293Z,7.95
2017-09-30T10:21:55.537Z,10.20
2017-09-30T10:24:23.782Z,7.60
2017-09-30T10:26:52.062Z,7.53
2017-09-30T10:29:20.306Z,7.20
2017-09-30T10:31:48.537Z,8.65
2017-09-30T10:34:17.573Z,7.55
2017-09-30T10:36:45.814Z,9.48
2017-09-30T10:39:14.053Z,7.43
2017-09-30T10:41:42.318Z,8.23
2017-09-30T10:44:10.673Z,9.52
2017-09-30T10:46:39.673Z,7.25
2017-09-30T10:49:08.087Z,6.37
2017-09-30T10:51:37.114Z,10.75
2017-09-30T10:54:05.367Z,7.47
2017-09-30T10:56:34.385Z,8.38
2017-09-30T10:59:02.626Z,6.45
2017-09-30T11:01:30.865Z,8.00
2017-09-30T11:03:59.141Z,7.82
2017-09-30T11:06:27.380Z,7.55
2017-09-30T11:08:55.624Z,10.85
2017-09-30T11:11:24.666Z,13.25
2017-09-30T11:13:52.906Z,9.43
2017-09-30T11:16:21.153Z,9.60
2017-09-30T11:18:49.427Z,6.68
2017-09-30T11:21:17.665Z,9.50
2017-09-30T11:23:45.907Z,8.40
2017-09-30T11:26:14.933Z,7.22
2017-09-30T11:28:43.169Z,8.18
2017-09-30T11:31:11.405Z,8.20
2017-09-30T11:33:40.449Z,7.35
2017-09-30T11:36:08.689Z,7.95
2017-09-30T11:38:36.933Z,9.23
2017-09-30T11:41:05.193Z,7.90
2017-09-30T11:43:33.438Z,7.45
2017-09-30T11:46:01.690Z,6.87
2017-09-30T11:48:30.737Z,7.53
2017-09-30T11:50:58.969Z,7.35
2017-09-30T11:53:27.210Z,12.37
2017-09-30T11:55:55.491Z,7.30
2017-09-30T11:58:23.733Z,6.85
2017-09-30T12:00:51.974Z,8.07
2017-09-30T12:03:21.422Z,7.82
2017-09-30T12:05:49.673Z,7.32
2017-09-30T12:08:17.913Z,7.45
2017-09-30T12:10:46.205Z,7.68
2017-09-30T12:13:14.441Z,6.50
2017-09-30T12:15:42.682Z,9.93
2017-09-30T12:18:10.964Z,8.60
2017-09-30T12:20:39.210Z,8.77
2017-09-30T12:23:07.450Z,8.40
2017-09-30T12:25:36.488Z,7.25
2017-09-30T12:28:04.734Z,7.12
2017-09-30T12:30:32.977Z,10.32
2017-09-30T12:33:01.377Z,7.15
2017-09-30T12:35:29.613Z,7.70
2017-09-30T12:37:57.853Z,11.90
2017-09-30T12:40:26.125Z,7.05
2017-09-30T12:42:54.365Z,6.47
2017-09-30T12:45:22.614Z,9.48
2017-09-30T12:47:51.661Z,7.40
2017-09-30T12:50:19.904Z,8.05
2017-09-30T12:52:48.149Z,6.80
2017-09-30T12:55:16.421Z,6.90
2017-09-30T12:57:44.665Z,6.72
2017-09-30T13:00:12.909Z,9.35
2017-09-30T13:02:41.201Z,8.68
2017-09-30T13:05:09.557Z,6.70
2017-09-30T13:07:37.798Z,8.68
2017-09-30T13:10:06.093Z,7.75
2017-09-30T13:12:34.337Z,6.75
2017-09-30T13:15:02.585Z,8.75
2017-09-30T13:17:30.857Z,6.47
2017-09-30T13:19:59.100Z,6.72
2017-09-30T13:22:27.338Z,7.90
2017-09-30T13:24:56.365Z,10.07
2017-09-30T13:27:24.605Z,6.55
2017-09-30T13:29:52.841Z,8.90
2017-09-30T13:32:21.897Z,6.70
2017-09-30T13:34:50.137Z,6.78
2017-09-30T13:37:18.382Z,7.03
2017-09-30T13:39:46.657Z,6.07
2017-09-30T13:42:14.902Z,6.18
2017-09-30T13:44:43.129Z,9.53
2017-09-30T13:47:12.166Z,7.47
2017-09-30T13:49:40.408Z,9.87
2017-09-30T13:52:08.649Z,6.68
2017-09-30T13:54:37.068Z,7.20
2017-09-30T13:57:05.310Z,7.17
2017-09-30T13:59:33.557Z,6.53
2017-09-30T14:02:01.826Z,6.23
2017-09-30T14:04:30.067Z,5.87
2017-09-30T14:06:58.300Z,6.47
2017-09-30T14:09:27.358Z,6.10
2017-09-30T14:11:55.608Z,8.63
2017-09-30T14:14:23.849Z,5.77
2017-09-30T14:16:52.149Z,5.47
2017-09-30T14:19:21.165Z,5.70
2017-09-30T14:21:49.406Z,7.03
2017-09-30T14:24:18.437Z,6.13
2017-09-30T14:26:46.677Z,7.93
2017-09-30T14:29:14.913Z,6.37
2017-09-30T14:31:43.192Z,6.70
2017-09-30T14:34:11.434Z,7.23
2017-09-30T14:36:39.665Z,7.47
2017-09-30T14:39:08.701Z,6.77
2017-09-30T14:41:36.939Z,6.13
2017-09-30T14:44:05.166Z,6.70
2017-09-30T14:46:34.212Z,6.23
2017-09-30T14:49:02.442Z,6.20
2017-09-30T14:51:30.745Z,5.83
2017-09-30T14:53:59.021Z,5.90
2017-09-30T14:56:27.253Z,4.63
2017-09-30T14:58:55.495Z,6.23
2017-09-30T15:01:23.774Z,5.73
2017-09-30T15:03:52.008Z,6.43
2017-09-30T15:06:20.261Z,5.77
2017-09-30T15:08:48.553Z,5.00
2017-09-30T15:11:16.789Z,5.60
2017-09-30T15:13:45.020Z,5.27
2017-09-30T15:16:14.049Z,5.10
2017-09-30T15:18:42.285Z,5.47
2017-09-30T15:21:10.525Z,5.30
2017-09-30T15:23:39.573Z,7.33
2017-09-30T15:26:07.814Z,5.70
2017-09-30T15:28:36.049Z,5.83
2017-09-30T15:31:04.309Z,5.57
2017-09-30T15:33:32.549Z,4.83
2017-09-30T15:36:01.555Z,5.15
2017-09-30T15:38:29.834Z,5.57
2017-09-30T15:40:58.072Z,5.70
2017-09-30T15:43:26.313Z,5.05
2017-09-30T15:45:54.581Z,5.45
2017-09-30T15:48:22.826Z,8.17
2017-09-30T15:50:51.835Z,5.50
2017-09-30T15:53:20.225Z,5.30
2017-09-30T15:55:48.460Z,6.53
2017-09-30T15:58:16.706Z,6.43
2017-09-30T16:00:44.981Z,6.00
2017-09-30T16:03:13.227Z,5.32
2017-09-30T16:05:41.470Z,7.95
2017-09-30T16:08:10.529Z,6.15
2017-09-30T16:10:38.778Z,10.18
2017-09-30T16:13:07.013Z,5.40
2017-09-30T16:15:35.302Z,5.75
2017-09-30T16:18:03.545Z,5.65
2017-09-30T16:20:31.781Z,6.12
2017-09-30T16:23:00.066Z,6.25
2017-09-30T16:25:28.305Z,6.05
2017-09-30T16:27:56.557Z,8.23
2017-09-30T16:30:24.833Z,5.55
2017-09-30T16:32:53.074Z,6.87
2017-09-30T16:35:21.318Z,9.23
2017-09-30T16:37:50.365Z,6.62
2017-09-30T16:40:18.609Z,6.65
2017-09-30T16:42:46.841Z,8.00
2017-09-30T16:45:15.122Z,5.78
2017-09-30T16:47:43.361Z,8.73
2017-09-30T16:50:11.601Z,7.50
2017-09-30T16:52:40.654Z,7.20
2017-09-30T16:55:08.889Z,8.23
2017-09-30T16:57:37.130Z,6.80
2017-09-30T17:00:05.421Z,6.75
2017-09-30T17:02:33.704Z,6.30
2017-09-30T17:05:02.513Z,8.27
2017-09-30T17:07:30.781Z,6.50
2017-09-30T17:09:59.055Z,7.03
2017-09-30T17:12:27.277Z,6.72
2017-09-30T17:14:56.317Z,8.10
2017-09-30T17:17:24.553Z,7.30
2017-09-30T17:19:52.813Z,6.60
2017-09-30T17:22:21.123Z,8.63
2017-09-30T17:24:49.381Z,7.62
2017-09-30T17:27:17.623Z,7.20
2017-09-30T17:29:45.906Z,8.93
2017-09-30T17:32:14.144Z,11.10
2017-09-30T17:34:42.377Z,8.98
2017-09-30T17:37:10.761Z,10.82
2017-09-30T17:39:39.003Z,9.57
2017-09-30T17:42:07.248Z,7.93
2017-09-30T17:44:35.513Z,10.02
2017-09-30T17:47:03.758Z,7.78
2017-09-30T17:49:32.757Z,7.35
2017-09-30T17:52:01.020Z,8.80
2017-09-30T17:54:29.270Z,9.50
2017-09-30T17:56:57.521Z,7.57
2017-09-30T17:59:25.822Z,9.52
2017-09-30T18:01:54.106Z,8.07
2017-09-30T18:04:22.417Z,6.70
2017-09-30T18:06:51.457Z,14.87
2017-09-30T18:09:19.697Z,9.07
2017-09-30T18:11:47.949Z,8.80
2017-09-30T18:14:16.204Z,8.00
2017-09-30T18:16:44.445Z,7.75
2017-09-30T18:19:12.674Z,8.88
2017-09-30T18:21:41.717Z,8.43
2017-09-30T18:24:11.690Z,10.85
2017-09-30T18:26:39.930Z,8.15
2017-09-30T18:29:08.213Z,9.13
2017-09-30T18:31:36.447Z,8.85
2017-09-30T18:34:05.448Z,8.82
2017-09-30T18:36:33.732Z,8.00
2017-09-30T18:39:01.972Z,10.75
2017-09-30T18:41:30.213Z,11.20
2017-09-30T18:43:58.496Z,10.38
2017-09-30T18:46:26.736Z,11.93
2017-09-30T18:48:54.981Z,8.30
2017-09-30T18:51:24.042Z,9.98
2017-09-30T18:53:52.293Z,9.18
2017-09-30T18:56:20.533Z,8.02
2017-09-30T18:58:49.009Z,10.30
2017-09-30T19:01:17.241Z,8.27
2017-09-30T19:03:45.480Z,8.32
2017-09-30T19:06:13.890Z,8.63
2017-09-30T19:08:42.130Z,11.18
2017-09-30T19:11:10.374Z,9.40
2017-09-30T19:13:38.697Z,8.73
2017-09-30T19:16:07.251Z,8.38
2017-09-30T19:18:35.481Z,8.90
2017-09-30T19:21:03.966Z,9.50
2017-09-30T19:23:32.202Z,9.50
2017-09-30T19:26:00.441Z,8.55
2017-09-30T19:28:28.722Z,8.77
2017-09-30T19:30:56.957Z,8.77
2017-09-30T19:33:25.958Z,9.05
2017-09-30T19:35:54.280Z,10.73
2017-09-30T19:38:22.513Z,8.25
2017-09-30T19:40:50.803Z,10.65
2017-09-30T19:43:19.090Z,8.93
2017-09-30T19:45:47.321Z,9.13
2017-09-30T19:48:15.559Z,10.80
2017-09-30T19:50:43.953Z,8.27
2017-09-30T19:53:12.185Z,6.10
2017-09-30T19:55:40.430Z,5.32
2017-09-30T19:58:08.901Z,5.60
2017-09-30T20:00:37.138Z,5.03
2017-09-30T20:03:05.368Z,7.68
2017-09-30T20:05:34.618Z,6.95
2017-09-30T20:08:02.857Z,5.55
2017-09-30T20:10:31.090Z,5.80
2017-09-30T20:12:59.492Z,5.30
2017-09-30T20:15:27.757Z,5.97
2017-09-30T20:17:55.990Z,10.57
2017-09-30T20:20:24.265Z,6.47
2017-09-30T20:22:52.502Z,4.28
2017-09-30T20:25:20.768Z,5.18
2017-09-30T20:27:49.121Z,6.35
2017-09-30T20:30:17.358Z,6.55
2017-09-30T20:32:46.361Z,6.22
2017-09-30T20:35:15.071Z,5.18
2017-09-30T20:37:43.319Z,7.10
2017-09-30T20:40:11.549Z,6.10
2017-09-30T20:42:39.817Z,6.15
2017-09-30T20:45:08.069Z,6.07
2017-09-30T20:47:37.057Z,6.55
2017-09-30T20:50:05.325Z,5.00
2017-09-30T20:52:33.558Z,6.65
2017-09-30T20:55:02.565Z,5.60
2017-09-30T20:57:30.849Z,7.70
2017-09-30T20:59:59.090Z,7.50
2017-09-30T21:02:27.329Z,8.25
2017-09-30T21:04:55.610Z,8.23
2017-09-30T21:07:23.895Z,14.05
2017-09-30T21:09:52.145Z,7.65
2017-09-30T21:12:20.405Z,8.77
2017-09-30T21:14:48.650Z,6.57
2017-09-30T21:17:16.896Z,7.85
2017-09-30T21:19:45.181Z,8.93
2017-09-30T21:22:13.418Z,10.88
2017-09-30T21:24:41.717Z,8.55
2017-09-30T21:27:09.972Z,6.47
2017-09-30T21:29:38.205Z,11.65
2017-09-30T21:32:06.457Z,7.32
2017-09-30T21:34:35.481Z,6.65
2017-09-30T21:37:03.719Z,6.35
2017-09-30T21:39:31.953Z,6.60
2017-09-30T21:42:00.220Z,9.05
2017-09-30T21:44:28.456Z,5.90
2017-09-30T21:46:57.453Z,8.90
2017-09-30T21:49:25.866Z,8.23
2017-09-30T21:51:54.097Z,9.10
2017-09-30T21:54:22.325Z,8.20
2017-09-30T21:56:51.368Z,6.75
2017-09-30T21:59:19.598Z,7.30
2017-09-30T22:01:47.846Z,9.00
2017-09-30T22:04:16.114Z,5.97
2017-09-30T22:06:44.354Z,6.12
2017-09-30T22:09:13.360Z,6.15
2017-09-30T22:11:41.621Z,5.72
2017-09-30T22:14:09.852Z,5.95
2017-09-30T22:16:38.851Z,6.35
2017-09-30T22:19:07.162Z,5.32
2017-09-30T22:21:35.397Z,6.25
2017-09-30T22:24:03.629Z,7.30
2017-09-30T22:26:31.917Z,6.95
2017-09-30T22:29:00.154Z,5.65
2017-09-30T22:31:28.398Z,6.37
2017-09-30T22:33:56.665Z,5.50
2017-09-30T22:36:24.918Z,5.43
2017-09-30T22:38:53.903Z,8.52
2017-09-30T22:41:22.193Z,6.28
2017-09-30T22:43:50.423Z,5.87
2017-09-30T22:46:18.662Z,6.40
2017-09-30T22:48:47.097Z,5.62
2017-09-30T22:51:15.330Z,6.75
2017-09-30T22:53:43.564Z,7.40
2017-09-30T22:56:12.909Z,6.50
2017-09-30T22:58:41.153Z,6.47
2017-09-30T23:01:09.390Z,5.93
2017-09-30T23:03:37.656Z,6.68
2017-09-30T23:06:05.893Z,6.47
2017-09-30T23:08:34.129Z,6.70
2017-09-30T23:11:02.390Z,7.22
2017-09-30T23:13:30.630Z,8.00
2017-09-30T23:15:58.861Z,5.35
2017-09-30T23:18:27.126Z,5.30
2017-09-30T23:20:55.382Z,5.15
2017-09-30T23:23:23.673Z,5.45
2017-09-30T23:25:51.926Z,5.20
2017-09-30T23:28:20.205Z,5.00
2017-09-30T23:30:48.446Z,4.85
2017-09-30T23:33:16.709Z,7.22
2017-09-30T23:35:44.937Z,4.37
2017-09-30T23:38:13.185Z,5.82
2017-09-30T23:40:42.201Z,4.53
2017-09-30T23:43:10.439Z,4.93
2017-09-30T23:45:38.681Z,5.70
2017-09-30T23:48:07.730Z,4.43
2017-09-30T23:50:35.970Z,5.82
2017-09-30T23:53:04.197Z,5.32
2017-09-30T23:55:32.493Z,7.90
2017-09-30T23:58:00.738Z,6.80
